createdAt,value
2023-03-08T00:00:13.740Z,9.07
2023-03-08T00:03:19.096Z,9.77
2023-03-08T00:06:25.451Z,10.23
2023-03-08T00:09:30.945Z,9.50
2023-03-08T00:12:36.444Z,10.32
2023-03-08T00:15:41.687Z,9.50
2023-03-08T00:18:47.606Z,10.48
2023-03-08T00:21:53.133Z,9.68
2023-03-08T00:24:58.287Z,10.32
2023-03-08T00:28:04.019Z,9.60
2023-03-08T00:31:13.137Z,10.07
2023-03-08T00:34:18.806Z,10.65
2023-03-08T00:37:24.320Z,9.02
2023-03-08T00:40:29.741Z,10.77
2023-03-08T00:43:35.760Z,11.10
2023-03-08T00:46:44.102Z,10.65
2023-03-08T00:49:52.627Z,10.32
2023-03-08T00:52:59.557Z,10.75
2023-03-08T00:56:05.065Z,11.20
2023-03-08T00:59:10.672Z,12.15
2023-03-08T01:02:18.123Z,11.77
2023-03-08T01:05:23.945Z,11.10
2023-03-08T01:08:29.581Z,11.57
2023-03-08T01:11:36.988Z,10.60
2023-03-08T01:14:42.874Z,11.50
2023-03-08T01:17:48.686Z,11.57
2023-03-08T01:21:06.879Z,12.35
2023-03-08T01:24:12.206Z,13.27
2023-03-08T01:27:17.746Z,12.27
2023-03-08T01:30:23.172Z,12.32
2023-03-08T01:33:28.921Z,11.48
2023-03-08T01:36:34.670Z,11.38
2023-03-08T01:39:40.013Z,10.30
2023-03-08T01:42:45.695Z,11.23
2023-03-08T01:46:25.387Z,11.93
2023-03-08T01:49:36.129Z,13.25
2023-03-08T01:52:48.949Z,14.13
2023-03-08T01:55:56.072Z,13.90
2023-03-08T01:59:02.444Z,14.07
2023-03-08T02:02:08.249Z,13.13
2023-03-08T02:05:14.291Z,12.50
2023-03-08T02:08:22.106Z,12.60
2023-03-08T02:11:28.347Z,11.30
2023-03-08T02:14:36.454Z,11.75
2023-03-08T02:17:43.976Z,12.43
2023-03-08T02:20:49.740Z,10.90
2023-03-08T02:23:56.051Z,11.88
2023-03-08T02:27:06.802Z,12.60
2023-03-08T02:30:16.009Z,10.80
2023-03-08T02:33:22.742Z,10.80
2023-03-08T02:36:28.286Z,13.00
2023-03-08T02:39:33.656Z,12.07
2023-03-08T02:42:38.921Z,10.93
2023-03-08T02:45:44.785Z,12.57
2023-03-08T02:48:53.078Z,12.45
2023-03-08T02:51:59.992Z,15.65
2023-03-08T02:55:06.455Z,12.43
2023-03-08T02:58:11.927Z,18.40
2023-03-08T03:01:17.410Z,16.23
2023-03-08T03:04:23.018Z,16.38
2023-03-08T03:07:28.646Z,14.15
2023-03-08T03:13:42.909Z,15.13
2023-03-08T03:16:51.295Z,12.98
2023-03-08T03:19:57.103Z,13.25
2023-03-08T03:23:02.858Z,12.40
2023-03-08T03:26:22.821Z,12.85
2023-03-08T03:29:31.534Z,13.63
2023-03-08T03:32:48.246Z,16.77
2023-03-08T03:35:58.878Z,16.10
2023-03-08T03:39:04.683Z,14.05
2023-03-08T03:42:12.994Z,13.73
2023-03-08T03:45:25.472Z,13.95
2023-03-08T03:48:32.670Z,13.15
2023-03-08T03:51:38.090Z,14.25
2023-03-08T03:55:07.728Z,13.52
2023-03-08T03:58:12.940Z,13.85
2023-03-08T04:01:27.728Z,13.55
2023-03-08T04:04:38.647Z,14.32
2023-03-08T04:07:44.564Z,13.75
2023-03-08T04:10:49.847Z,12.95
2023-03-08T04:13:55.659Z,13.23
2023-03-08T04:17:03.333Z,12.80
2023-03-08T04:20:16.401Z,13.05
2023-03-08T04:23:30.652Z,14.38
2023-03-08T04:26:36.609Z,13.07
2023-03-08T04:29:41.958Z,11.88
2023-03-08T04:32:48.334Z,14.50
2023-03-08T04:35:54.779Z,13.13
2023-03-08T04:39:03.598Z,14.25
2023-03-08T04:42:10.441Z,13.68
2023-03-08T04:45:16.008Z,12.70
2023-03-08T04:48:21.210Z,13.05
2023-03-08T04:51:27.467Z,12.25
2023-03-08T04:54:36.042Z,13.20
2023-03-08T04:57:47.230Z,15.00
2023-03-08T05:00:52.887Z,16.15
2023-03-08T05:03:58.502Z,16.00
2023-03-08T05:07:12.369Z,18.17
2023-03-08T05:10:18.570Z,17.38
2023-03-08T05:13:25.525Z,15.30
2023-03-08T05:16:31.285Z,18.10
2023-03-08T05:19:36.743Z,17.20
2023-03-08T05:22:57.232Z,17.27
2023-03-08T05:26:14.034Z,16.73
2023-03-08T05:29:19.617Z,15.60
2023-03-08T05:32:25.521Z,16.52
2023-03-08T05:35:31.168Z,13.38
2023-03-08T05:38:36.938Z,13.18
2023-03-08T05:41:46.340Z,13.93
2023-03-08T05:44:57.414Z,14.57
2023-03-08T05:48:07.794Z,14.00
2023-03-08T05:51:17.352Z,14.93
2023-03-08T05:54:23.511Z,14.07
2023-03-08T05:57:32.489Z,15.35
2023-03-08T06:00:38.376Z,14.98
2023-03-08T06:03:46.130Z,14.77
2023-03-08T06:06:52.586Z,15.75
2023-03-08T06:10:01.928Z,15.55
2023-03-08T06:13:07.701Z,16.90
2023-03-08T06:16:14.647Z,17.55
2023-03-08T06:19:21.266Z,17.30
2023-03-08T06:22:31.165Z,17.67
2023-03-08T06:25:38.881Z,17.33
2023-03-08T06:28:45.385Z,17.85
2023-03-08T06:31:52.325Z,19.25
2023-03-08T06:35:00.115Z,16.70
2023-03-08T06:38:07.606Z,18.00
2023-03-08T06:41:17.646Z,16.67
2023-03-08T06:44:25.968Z,19.52
2023-03-08T06:47:32.124Z,18.58
2023-03-08T06:50:38.183Z,18.08
2023-03-08T06:53:43.772Z,17.20
2023-03-08T06:56:49.834Z,19.08
2023-03-08T06:59:55.208Z,20.70
2023-03-08T07:03:00.590Z,19.02
2023-03-08T07:06:10.324Z,18.45
2023-03-08T07:09:15.556Z,20.33
2023-03-08T12:29:51.165Z,11.02
2023-03-08T12:32:59.381Z,12.93
2023-03-08T12:36:07.558Z,11.77
2023-03-08T12:39:35.036Z,12.05
2023-03-08T12:42:41.916Z,8.93
2023-03-08T12:46:10.506Z,11.10
2023-03-08T12:49:29.552Z,11.73
2023-03-08T12:52:35.504Z,10.38
2023-03-08T12:55:41.770Z,11.20
2023-03-08T12:59:00.679Z,10.90
2023-03-08T13:02:21.206Z,11.07
2023-03-08T13:05:31.908Z,11.88
2023-03-08T13:08:49.321Z,10.20
2023-03-08T13:12:19.224Z,10.82
2023-03-08T13:15:26.224Z,9.68
2023-03-08T13:18:31.639Z,7.03
2023-03-08T13:21:46.489Z,7.90
2023-03-08T13:25:01.741Z,7.38
2023-03-08T13:28:15.857Z,6.25
2023-03-08T13:31:26.796Z,6.95
2023-03-08T13:34:35.531Z,8.90
2023-03-08T13:37:40.437Z,7.93
2023-03-08T13:40:52.565Z,7.88
2023-03-08T13:44:06.633Z,9.07
2023-03-08T13:47:33.373Z,9.85
2023-03-08T13:50:44.483Z,10.45
2023-03-08T13:53:49.972Z,9.30
2023-03-08T13:57:05.783Z,8.50
2023-03-08T14:00:22.673Z,8.48
2023-03-08T14:03:31.543Z,10.32
2023-03-08T14:06:38.865Z,9.25
2023-03-08T14:09:44.135Z,10.18
2023-03-08T14:12:49.550Z,10.38
2023-03-08T14:15:59.065Z,12.05
2023-03-08T14:19:19.650Z,12.27
2023-03-08T14:22:38.767Z,10.52
2023-03-08T14:25:59.870Z,9.98
2023-03-08T14:29:22.211Z,10.20
2023-03-08T14:32:32.760Z,10.77
2023-03-08T14:35:41.707Z,10.93
2023-03-08T14:38:49.350Z,11.45
2023-03-08T14:41:56.505Z,11.15
2023-03-08T14:45:18.586Z,12.75
2023-03-08T14:48:35.902Z,11.18
2023-03-08T14:51:43.184Z,10.73
2023-03-08T14:54:48.185Z,12.05
2023-03-08T14:57:58.132Z,11.85
2023-03-08T15:01:03.763Z,11.75
2023-03-08T15:04:22.072Z,12.63
2023-03-08T15:07:33.555Z,12.25
2023-03-08T15:10:40.692Z,11.65
2023-03-08T15:13:46.620Z,11.27
2023-03-08T15:16:53.555Z,11.80
2023-03-08T15:19:58.600Z,11.80
2023-03-08T15:23:07.557Z,11.95
2023-03-08T15:26:21.236Z,12.80
2023-03-08T15:29:31.311Z,12.07
2023-03-08T15:32:36.434Z,13.95
2023-03-08T15:35:42.145Z,12.68
2023-03-08T15:38:47.481Z,13.52
2023-03-08T15:41:53.571Z,12.80
2023-03-08T15:44:59.270Z,12.68
2023-03-08T15:48:07.465Z,11.52
2023-03-08T15:51:20.980Z,12.23
2023-03-08T15:54:26.496Z,11.73
2023-03-08T15:57:32.672Z,12.30
2023-03-08T16:00:38.290Z,13.38
2023-03-08T16:03:43.505Z,11.90
2023-03-08T16:06:49.273Z,12.52
2023-03-08T16:09:54.577Z,14.00
2023-03-08T16:13:00.044Z,14.90
2023-03-08T16:16:06.428Z,13.85
2023-03-08T16:19:11.966Z,14.73
2023-03-08T16:22:17.504Z,14.07
2023-03-08T16:25:23.599Z,13.68
2023-03-08T16:28:29.311Z,13.38
2023-03-08T16:31:36.076Z,13.23
2023-03-08T16:34:41.513Z,14.05
2023-03-08T16:37:46.889Z,12.50
2023-03-08T16:41:02.886Z,14.73
2023-03-08T16:44:29.348Z,14.02
2023-03-08T16:47:34.450Z,14.98
2023-03-08T16:50:39.780Z,12.88
2023-03-08T16:53:45.113Z,13.32
2023-03-08T16:56:51.016Z,14.43
2023-03-08T16:59:56.475Z,12.95
2023-03-08T17:03:01.478Z,12.30
2023-03-08T17:06:11.963Z,13.35
2023-03-08T17:09:17.751Z,14.23
2023-03-08T17:12:22.881Z,15.05
2023-03-08T17:15:28.120Z,12.85
2023-03-08T17:18:33.543Z,14.57
2023-03-08T17:21:39.141Z,14.45
2023-03-08T17:24:44.711Z,13.70
2023-03-08T17:27:51.488Z,13.18
2023-03-08T17:30:57.409Z,13.52
2023-03-08T17:34:03.172Z,13.82
2023-03-08T17:37:12.509Z,14.55
2023-03-08T17:40:19.802Z,13.77
2023-03-08T17:43:25.447Z,16.10
2023-03-08T17:46:31.022Z,14.82
2023-03-08T17:49:36.604Z,17.10
2023-03-08T17:52:42.572Z,13.32
2023-03-08T17:55:47.756Z,13.45
2023-03-08T17:58:53.381Z,13.80
2023-03-08T18:01:59.000Z,13.80
2023-03-08T18:05:06.436Z,14.25
2023-03-08T18:08:11.960Z,13.75
2023-03-08T18:11:17.745Z,13.25
2023-03-08T18:14:34.282Z,14.70
2023-03-08T18:17:43.644Z,13.52
2023-03-08T18:20:49.135Z,13.90
2023-03-08T18:23:55.014Z,16.95
2023-03-08T18:27:00.502Z,14.80
2023-03-08T18:30:06.621Z,15.90
2023-03-08T18:33:11.828Z,16.23
2023-03-08T18:36:18.806Z,13.70
2023-03-08T18:39:25.363Z,14.27
2023-03-08T18:42:31.097Z,14.38
2023-03-08T18:45:36.664Z,14.27
2023-03-08T18:48:42.702Z,15.18
2023-03-08T18:51:48.296Z,14.18
2023-03-08T18:54:54.506Z,15.15
2023-03-08T18:57:59.859Z,14.38
2023-03-08T19:01:11.952Z,13.98
2023-03-08T19:04:18.332Z,14.52
2023-03-08T19:07:23.754Z,15.55
2023-03-08T19:10:29.243Z,15.45
2023-03-08T19:13:34.403Z,15.60
2023-03-08T19:16:40.756Z,15.30
2023-03-08T19:19:46.336Z,14.52
2023-03-08T19:22:53.141Z,14.93
2023-03-08T19:26:17.046Z,15.25
2023-03-08T19:29:25.312Z,14.98
2023-03-08T19:32:30.865Z,15.20
2023-03-08T19:35:36.389Z,15.73
2023-03-08T19:38:41.975Z,18.05
2023-03-08T19:41:52.322Z,15.80
2023-03-08T19:44:57.932Z,16.58
2023-03-08T19:48:03.752Z,18.58
2023-03-08T19:51:11.320Z,16.38
2023-03-08T19:54:16.893Z,17.08
2023-03-08T19:57:22.434Z,15.35
2023-03-08T20:00:29.001Z,15.13
2023-03-08T20:03:34.993Z,14.13
2023-03-08T20:06:46.350Z,15.02
2023-03-08T20:09:55.664Z,15.32
2023-03-08T20:13:01.617Z,16.42
2023-03-08T20:16:07.591Z,14.90
2023-03-08T20:19:13.295Z,15.35
2023-03-08T20:22:18.858Z,17.50
2023-03-08T20:25:24.500Z,21.38
2023-03-08T20:28:30.682Z,21.50
2023-03-08T20:31:36.056Z,15.93
2023-03-08T20:34:41.853Z,16.17
2023-03-08T20:37:48.747Z,13.60
2023-03-08T20:41:06.495Z,14.98
2023-03-08T20:44:12.397Z,15.93
2023-03-08T20:47:17.937Z,14.35
2023-03-08T20:50:26.748Z,13.63
2023-03-08T20:53:33.648Z,14.98
2023-03-08T20:56:39.192Z,15.45
2023-03-08T20:59:44.914Z,14.13
2023-03-08T21:02:50.625Z,14.95
2023-03-08T21:05:55.960Z,14.80
2023-03-08T21:09:02.028Z,14.48
2023-03-08T21:12:08.211Z,16.63
2023-03-08T21:15:13.926Z,14.18
2023-03-08T21:18:19.248Z,15.05
2023-03-08T21:21:37.164Z,15.60
2023-03-08T21:24:42.527Z,14.73
2023-03-08T21:27:48.067Z,15.02
2023-03-08T21:30:53.840Z,14.90
2023-03-08T21:34:02.362Z,15.07
2023-03-08T21:37:08.157Z,15.18
2023-03-08T21:40:14.146Z,16.25
2023-03-08T21:43:19.596Z,14.73
2023-03-08T21:46:26.107Z,16.60
2023-03-08T21:49:32.264Z,16.50
2023-03-08T21:52:37.538Z,16.67
2023-03-08T21:55:42.764Z,15.73
2023-03-08T21:58:48.312Z,17.13
2023-03-08T22:01:58.534Z,16.67
2023-03-08T22:05:04.310Z,15.90
2023-03-08T22:08:09.880Z,17.52
2023-03-08T22:11:15.542Z,16.88
2023-03-08T22:14:21.295Z,16.35
2023-03-08T22:17:26.870Z,17.27
2023-03-08T22:20:32.894Z,15.32
2023-03-08T22:23:38.404Z,16.95
2023-03-08T22:26:44.224Z,15.50
2023-03-08T22:29:50.222Z,16.52
2023-03-08T22:32:55.551Z,16.15
2023-03-08T22:36:05.990Z,15.68
2023-03-08T22:39:13.316Z,17.02
2023-03-08T22:42:18.446Z,17.55
2023-03-08T22:45:23.911Z,17.02
2023-03-08T22:48:29.174Z,18.30
2023-03-08T22:51:36.746Z,16.52
2023-03-08T22:54:41.908Z,17.77
2023-03-08T22:57:48.501Z,17.90
2023-03-08T23:00:53.956Z,17.80
2023-03-08T23:04:01.686Z,18.27
2023-03-08T23:07:07.961Z,18.98
2023-03-08T23:10:15.880Z,17.13
2023-03-08T23:13:33.117Z,17.08
2023-03-08T23:16:43.128Z,17.98
2023-03-08T23:19:50.477Z,19.10
2023-03-08T23:22:55.431Z,17.95
2023-03-08T23:26:04.440Z,20.20
2023-03-08T23:29:10.095Z,20.00
2023-03-08T23:32:15.377Z,21.10
2023-03-08T23:35:20.654Z,19.80
2023-03-08T23:38:26.239Z,20.40
2023-03-08T23:41:32.855Z,18.35
2023-03-08T23:44:38.995Z,22.13
2023-03-08T23:47:44.557Z,21.73
2023-03-08T23:50:50.047Z,22.17
2023-03-08T23:54:00.006Z,22.00
2023-03-08T23:57:05.641Z,20.05
